Nearby METAR Reports

 

KHIF - Hill Afb/Ogden, Utah, USA
Distance from station: ENE 6mi, 9km
Updated: Wed, 23-Aug-2017 6:58am MDT
Clear
Clear
 Wind from SE
Wind: SE 5 mph , 7 km/h
Temperature: 68°F , 20°C
Dew Point: 46°F , 8°C
Humidity: 46%
Barometer: 30.19 inHg , 1022.4 hPa
Clouds: Clear
Visibility: 10 miles , 16 km
2017/08/23 12:58 KHIF 231258Z AUTO 14004KT 10SM CLR 20/08 A3019 RMK AO2 SLP163 T02000076
KOGD - Ogden, Utah, USA
Distance from station: NNE 9mi, 14km
Updated: Wed, 23-Aug-2017 6:53am MDT
Clear
Clear
 Wind from S
Wind: S 8 mph , 13 km/h
Temperature: 66°F , 19°C
Dew Point: 46°F , 8°C
Humidity: 49%
Barometer: 30.16 inHg , 1021.3 hPa
Clouds: Clear
Visibility: 10 miles , 16 km
2017/08/23 12:53 KOGD 231253Z 18007KT 10SM CLR 19/08 A3016 RMK AO2 SLP152 T01940083
 
KSLC - Salt Lake City, Utah, USA
Distance from station: SSE 21mi, 34km
Updated: Wed, 23-Aug-2017 6:54am MDT
Mostly cloudy
Mostly cloudy
 Wind from SE
Wind: SE 8 mph , 13 km/h
Temperature: 70°F , 21°C
Dew Point: 55°F , 13°C
Humidity: 60%
Barometer: 30.16 inHg , 1021.3 hPa
Clouds: Mostly cloudy
Visibility: 10 miles , 16 km
Cloud details: Few Clouds 10000 ft
Mostly cloudy 13000 ft
2017/08/23 12:54 KSLC 231254Z 13007KT 10SM FEW100 BKN130 21/13 A3016 RMK AO2 SLP159 T02110128
KLGU - Logan, Utah, USA
Distance from station: NNE 50mi, 80km
Updated: Wed, 23-Aug-2017 6:51am MDT
Partly cloudy
Partly cloudy
 Wind from N
Wind: N 3 mph , 6 km/h
Temperature: 64°F , 18°C
Dew Point: 54°F , 12°C
Humidity: 68%
Barometer: 30.17 inHg , 1021.7 hPa
Clouds: Partly cloudy
Visibility: 10 miles , 16 km
Cloud details: Few Clouds 8000 ft
Partly cloudy 10000 ft
2017/08/23 12:51 KLGU 231251Z AUTO 36003KT 10SM FEW080 SCT100 18/12 A3017 RMK AO2 SLP160 T01780122
 
K36U - Heber/Russ Mcdon, Utah, USA
Distance from station: SE 53mi, 85km
Updated: Wed, 23-Aug-2017 7:35am MDT
Clear
Clear
 Wind from calm
Wind: Calm
Temperature: 52°F , 11°C
Dew Point: 48°F , 9°C
Humidity: 88%
Barometer: 30.26 inHg , 1024.7 hPa
Clouds: Clear
Visibility: 10 miles , 16 km
2017/08/23 13:35 K36U 231335Z AUTO 00000KT 10SM CLR 11/09 A3026 RMK AO2
KEVW - Evanston, Wyoming, USA
Distance from station: ENE 55mi, 89km
Updated: Wed, 23-Aug-2017 6:53am MDT
Light rain, Overcast
Light rain, Overcast
 Wind from E
Wind: E 6 mph , 9 km/h
Temperature: 61°F , 16°C
Dew Point: 45°F , 7°C
Humidity: 55%
Barometer: 30.35 inHg , 1027.8 hPa
Summary: Light rain
Clouds: Overcast
Visibility: 10 miles , 16 km
Cloud details: Overcast 8000 ft
2017/08/23 12:53 KEVW 231253Z AUTO 08005KT 10SM -RA OVC080 16/07 A3035 RMK AO2 RAE01B45 SLP187 P0000 T01560067
 
KPVU - Provo Muni, Utah, USA
Distance from station: SSE 62mi, 100km
Updated: Wed, 23-Aug-2017 6:58am MDT
Partly cloudy
Partly cloudy
 Wind from calm
Wind: Calm
Temperature: 61°F , 16°C
Dew Point: 54°F , 12°C
Humidity: 77%
Barometer: 30.21 inHg , 1023 hPa
Clouds: Partly cloudy
Visibility: 10 miles , 16 km
Cloud details: Partly cloudy 11000 ft
2017/08/23 12:58 KPVU 231258Z 00000KT 10SM SCT110 16/12 A3021
KDPG - Dugway Prvg Grou, Utah, USA
Distance from station: SW 75mi, 121km
Updated: Wed, 23-Aug-2017 6:50am MDT
Partly cloudy
Partly cloudy
 Wind from SE
Wind: SE 2 mph , 4 km/h
Temperature: 54°F , 12°C
Dew Point: 43°F , 6°C
Humidity: 67%
Barometer: 30.16 inHg , 1021.3 hPa
Clouds: Partly cloudy
Visibility: 10 miles , 16 km
Cloud details: Few Clouds 9000 ft
Partly cloudy 10000 ft
Partly cloudy 14000 ft
2017/08/23 12:50 KDPG 231250Z 13002KT 10SM FEW090 SCT100 SCT140 12/06 A3016 RMK SLP172 VIRGA DSNT N TCU DSNT SE T01210061 NOSPECI
 
KENV - Wendover (aut), Utah, USA
Distance from station: WSW 105mi, 169km
Updated: Wed, 23-Aug-2017 5:56am MDT
NOT Current
Clear
Clear
 Wind from NNE
Wind: NNE 3 mph , 6 km/h
Temperature: 63°F , 17°C
Dew Point: 48°F , 9°C
Humidity: 59%
Barometer: 30.14 inHg , 1020.7 hPa
Clouds: Clear
Visibility: 10 miles , 16 km
2017/08/23 11:56 KENV 231156Z AUTO 03003KT 10SM CLR 17/09 A3014 RMK AO2 SLP168 T01720089 10233 20167 57005
KPUC - Price, Utah, USA
Distance from station: SE 123mi, 197km
Updated: Wed, 23-Aug-2017 6:53am MDT
Clear
Clear
 Wind from NE
Wind: NE 5 mph , 7 km/h
Temperature: 54°F , 12°C
Dew Point: 50°F , 10°C
Humidity: 88%
Barometer: 30.28 inHg , 1025.4 hPa
Clouds: Clear
Visibility: 10 miles , 16 km
2017/08/23 12:53 KPUC 231253Z AUTO 04004KT 10SM CLR 12/10 A3028 RMK AO2 SLP187 T01220100
 
KPIH - Pocatello, Idaho, USA
Distance from station: NNW 130mi, 208km
Updated: Wed, 23-Aug-2017 6:53am MDT
Few Clouds
Few Clouds
 Wind from NW
Wind: NW 3 mph , 6 km/h
Temperature: 59°F , 15°C
Dew Point: 50°F , 10°C
Humidity: 72%
Barometer: 30.16 inHg , 1021.3 hPa
Clouds: Few Clouds
Visibility: 10 miles , 16 km
Cloud details: Few Clouds 12000 ft
2017/08/23 12:53 KPIH 231253Z 31003KT 10SM FEW120 15/10 A3016 RMK AO2 SLP161 T01500100
KBYI - Burley, Idaho, USA
Distance from station: NW 134mi, 216km
Updated: Wed, 23-Aug-2017 6:53am MDT
Overcast
Overcast
 Wind from ENE
Wind: ENE 3 mph , 6 km/h
Temperature: 64°F , 18°C
Dew Point: 52°F , 11°C
Humidity: 64%
Barometer: 30.12 inHg , 1020 hPa
Clouds: Overcast
Visibility: 10 miles , 16 km
Cloud details: Overcast 11000 ft
2017/08/23 12:53 KBYI 231253Z AUTO 06003KT 10SM OVC110 18/11 A3012 RMK AO2 SLP151 T01830111
 
KVEL - Vernal, Utah, USA
Distance from station: ESE 140mi, 226km
Updated: Wed, 23-Aug-2017 6:53am MDT
Clear
Clear
 Wind from calm
Wind: Calm
Temperature: 63°F , 17°C
Dew Point: 48°F , 9°C
Humidity: 59%
Barometer: 30.25 inHg , 1024.4 hPa
Clouds: Clear
Visibility: 10 miles , 16 km
2017/08/23 12:53 KVEL 231253Z AUTO 00000KT 10SM CLR 17/09 A3025 RMK AO2 SLP175 T01720089
KBPI - Big Piney, Wyoming, USA
Distance from station: NE 145mi, 234km
Updated: Wed, 23-Aug-2017 6:53am MDT
Overcast
Overcast
 Wind from NW
Wind: NW 5 mph , 7 km/h
Temperature: 46°F , 8°C
Wind Chill: 44°F , 7°C
Dew Point: 34°F , 1°C
Humidity: 62%
Barometer: 30.34 inHg , 1027.4 hPa
Clouds: Overcast
Visibility: 10 miles , 16 km
Cloud details: Overcast 11000 ft
2017/08/23 12:53 KBPI 231253Z AUTO 32004KT 10SM OVC110 08/01 A3034 RMK AO2 SLP184 T00830011